Time;durP1;ratioP1;P1;durP2;ratioP2;P2;SDS_P1;SDS_P2;PMS_P1;PMS_P2;Temp;Humidity;BMP_temperature;BMP_pressure;BME280_temperature;BME280_humidity;BME280_pressure;Samples;Min_cycle;Max_cycle;Signal;HPM_P1;HPM_P2
2020/12/13 00:00:29;;;;;;;510.57;43.13;;;3.10;99.90;;;;;;5072276;28;20499;-69
2020/12/13 00:02:56;;;;;;;547.57;48.30;;;3.10;99.90;;;;;;5071773;28;20941;-69
2020/12/13 00:05:23;;;;;;;623.37;49.03;;;3.10;99.90;;;;;;5072039;28;20437;-69
2020/12/13 00:07:51;;;;;;;448.37;37.77;;;3.10;99.90;;;;;;5071514;28;20426;-69
2020/12/13 00:10:18;;;;;;;577.90;49.93;;;3.10;99.90;;;;;;5071796;28;20469;-69
2020/12/13 00:12:44;;;;;;;633.27;57.67;;;3.10;99.90;;;;;;5073567;28;20437;-69
2020/12/13 00:15:11;;;;;;;575.33;44.63;;;3.10;99.90;;;;;;5078074;28;21156;-71
2020/12/13 00:17:38;;;;;;;292.90;30.07;;;3.10;99.90;;;;;;5087464;28;20417;-71
2020/12/13 00:20:05;;;;;;;418.17;36.53;;;3.10;99.90;;;;;;5071536;28;20456;-69
2020/12/13 00:22:33;;;;;;;422.23;42.80;;;3.10;99.90;;;;;;5070892;28;20426;-69
2020/12/13 00:24:59;;;;;;;402.80;38.13;;;3.10;99.90;;;;;;5079923;28;20874;-70
2020/12/13 00:27:26;;;;;;;611.90;51.83;;;3.10;99.90;;;;;;5091306;28;20432;-70
2020/12/13 00:29:53;;;;;;;419.50;37.53;;;3.10;99.90;;;;;;5087491;28;20481;-69
2020/12/13 00:32:20;;;;;;;574.83;43.97;;;3.10;99.90;;;;;;5080427;28;20445;-70
2020/12/13 00:34:47;;;;;;;536.50;43.47;;;3.10;99.90;;;;;;5091770;28;20553;-69
2020/12/13 00:37:13;;;;;;;537.53;45.93;;;3.10;99.90;;;;;;5090836;28;20425;-70
2020/12/13 00:39:41;;;;;;;411.50;38.53;;;3.10;99.90;;;;;;5091149;28;20452;-71
2020/12/13 00:42:08;;;;;;;520.03;40.83;;;3.10;99.90;;;;;;5090997;28;20428;-71
2020/12/13 00:44:34;;;;;;;409.80;38.97;;;3.10;99.90;;;;;;5091453;28;20425;-69
2020/12/13 00:47:01;;;;;;;418.03;42.40;;;3.10;99.90;;;;;;5091192;28;20421;-69
2020/12/13 00:49:27;;;;;;;623.83;50.57;;;3.10;99.90;;;;;;5075503;28;20990;-70
2020/12/13 00:51:59;;;;;;;360.40;35.47;;;3.10;99.90;;;;;;5070422;28;20523;-70
2020/12/13 00:54:26;;;;;;;450.03;46.83;;;3.10;99.90;;;;;;5070960;28;20429;-71
2020/12/13 00:56:53;;;;;;;384.63;36.67;;;3.10;99.90;;;;;;5071254;28;20434;-69
2020/12/13 00:59:20;;;;;;;482.70;45.70;;;3.10;99.90;;;;;;5070859;28;20455;-70
2020/12/13 01:01:47;;;;;;;588.43;58.53;;;3.10;99.90;;;;;;5070713;28;20429;-69
2020/12/13 01:04:14;;;;;;;469.37;47.33;;;3.10;99.90;;;;;;5071101;28;20907;-70
2020/12/13 01:06:40;;;;;;;530.63;47.30;;;3.10;99.90;;;;;;5070891;28;20426;-71
2020/12/13 01:09:07;;;;;;;500.03;51.60;;;3.10;99.90;;;;;;5070490;28;20473;-70
2020/12/13 01:11:34;;;;;;;501.27;45.73;;;3.10;99.90;;;;;;5070873;28;20425;-70
2020/12/13 01:14:03;;;;;;;545.60;46.90;;;3.10;99.90;;;;;;5079220;28;20432;-70
2020/12/13 01:16:30;;;;;;;506.17;45.93;;;3.10;99.90;;;;;;5090938;28;20429;-69
2020/12/13 01:18:59;;;;;;;610.83;52.23;;;3.10;99.90;;;;;;5079100;28;20459;-71
2020/12/13 01:21:28;;;;;;;539.53;46.33;;;3.10;99.90;;;;;;5070708;28;20833;-70
2020/12/13 01:23:55;;;;;;;468.07;41.60;;;3.10;99.90;;;;;;5070509;28;20436;-71
2020/12/13 01:26:24;;;;;;;472.83;37.87;;;3.10;99.90;;;;;;5070653;28;20444;-70
2020/12/13 01:28:51;;;;;;;596.33;49.13;;;3.10;99.90;;;;;;5070685;28;20473;-71
2020/12/13 01:31:20;;;;;;;484.13;41.70;;;3.10;99.90;;;;;;5071000;28;20788;-70
2020/12/13 01:33:48;;;;;;;523.40;42.67;;;3.10;99.90;;;;;;5070363;28;20434;-69
2020/12/13 01:36:16;;;;;;;560.20;46.30;;;3.10;99.90;;;;;;5070728;28;20430;-70
2020/12/13 01:38:43;;;;;;;548.07;46.33;;;3.10;99.90;;;;;;5069943;28;20438;-70
2020/12/13 01:41:10;;;;;;;448.60;41.20;;;3.10;99.90;;;;;;5070501;28;20430;-70
2020/12/13 01:43:37;;;;;;;491.70;40.97;;;3.10;99.90;;;;;;5070574;28;20452;-70
2020/12/13 01:46:05;;;;;;;480.50;39.70;;;3.10;99.90;;;;;;5070623;28;20434;-70
2020/12/13 01:48:37;;;;;;;365.40;34.60;;;3.10;99.90;;;;;;5070319;28;20469;-70
2020/12/13 01:51:12;;;;;;;391.17;38.47;;;3.10;99.90;;;;;;5070362;28;20445;-70
2020/12/13 01:53:39;;;;;;;426.33;41.37;;;3.10;99.90;;;;;;5070017;28;20941;-69
2020/12/13 01:56:06;;;;;;;491.27;44.07;;;3.20;99.90;;;;;;5070362;28;20426;-70
2020/12/13 01:58:38;;;;;;;402.27;42.87;;;3.10;99.90;;;;;;5070079;28;20433;-69
2020/12/13 02:01:07;;;;;;;461.37;43.50;;;3.20;99.90;;;;;;5070399;28;20465;-69
2020/12/13 02:03:44;;;;;;;182.17;19.93;;;3.20;99.90;;;;;;5070162;28;20425;-70
2020/12/13 02:06:15;;;;;;;326.23;36.43;;;3.20;99.90;;;;;;5071024;28;20428;-69
2020/12/13 02:08:42;;;;;;;148.40;21.00;;;3.20;99.90;;;;;;5082090;28;20472;-71
2020/12/13 02:11:10;;;;;;;150.27;20.90;;;3.20;99.90;;;;;;5070369;28;20434;-70
2020/12/13 02:13:38;;;;;;;223.87;25.13;;;3.20;99.90;;;;;;5070136;28;20517;-70
2020/12/13 02:16:07;;;;;;;139.13;22.40;;;3.20;99.90;;;;;;5072835;28;20418;-69
2020/12/13 02:18:34;;;;;;;252.93;30.33;;;3.10;99.90;;;;;;5073746;28;20426;-70
2020/12/13 02:21:03;;;;;;;84.37;17.63;;;3.10;99.90;;;;;;5073881;28;20434;-69
2020/12/13 02:23:31;;;;;;;234.23;27.70;;;3.20;99.90;;;;;;5073180;28;21227;-70
2020/12/13 02:25:58;;;;;;;261.27;31.03;;;3.20;99.90;;;;;;5073937;28;20799;-69
2020/12/13 02:28:24;;;;;;;366.93;37.13;;;3.20;99.90;;;;;;5073748;28;20445;-70
2020/12/13 02:30:52;;;;;;;315.57;30.83;;;3.20;99.90;;;;;;5073596;28;20450;-69
2020/12/13 02:33:19;;;;;;;230.97;28.53;;;3.20;99.90;;;;;;5073872;28;20426;-69
2020/12/13 02:35:45;;;;;;;344.60;31.93;;;3.20;99.90;;;;;;5073596;28;20426;-69
2020/12/13 02:38:12;;;;;;;142.73;19.70;;;3.20;99.90;;;;;;5073429;28;20422;-69
2020/12/13 02:40:40;;;;;;;211.40;25.93;;;3.20;99.90;;;;;;5073371;28;20450;-70
2020/12/13 02:43:06;;;;;;;193.83;19.17;;;3.20;99.90;;;;;;5073863;28;20430;-70
2020/12/13 02:45:33;;;;;;;173.17;24.57;;;3.20;99.90;;;;;;5073747;28;20438;-70
2020/12/13 02:48:00;;;;;;;222.80;25.00;;;3.20;99.90;;;;;;5073550;28;20437;-71
2020/12/13 02:50:26;;;;;;;278.77;26.67;;;3.20;99.90;;;;;;5073091;28;20469;-69
2020/12/13 02:52:53;;;;;;;409.67;39.23;;;3.20;99.90;;;;;;5072329;28;20429;-69
2020/12/13 02:55:20;;;;;;;447.23;38.87;;;3.20;99.90;;;;;;5073436;28;20434;-69
2020/12/13 02:57:47;;;;;;;387.47;37.53;;;3.20;99.90;;;;;;5073273;28;20426;-70
2020/12/13 03:00:14;;;;;;;439.93;40.80;;;3.20;99.90;;;;;;5073206;28;20450;-69
2020/12/13 03:02:41;;;;;;;397.77;33.77;;;3.20;99.90;;;;;;5072975;28;21092;-69
2020/12/13 03:05:07;;;;;;;361.07;34.07;;;3.20;99.90;;;;;;5073197;28;20921;-70
2020/12/13 03:07:34;;;;;;;460.67;43.30;;;3.20;99.90;;;;;;5077560;28;20949;-69
2020/12/13 03:10:00;;;;;;;535.27;47.53;;;3.20;99.90;;;;;;5082230;28;20477;-69
2020/12/13 03:12:27;;;;;;;552.80;49.40;;;3.10;99.90;;;;;;5072959;28;20915;-70
2020/12/13 03:14:55;;;;;;;335.27;35.50;;;3.20;99.90;;;;;;5073004;28;20422;-68
2020/12/13 03:17:22;;;;;;;410.00;40.77;;;3.10;99.90;;;;;;5072943;28;20422;-70
2020/12/13 03:19:49;;;;;;;417.83;34.77;;;3.10;99.90;;;;;;5072743;28;20538;-69
2020/12/13 03:22:15;;;;;;;326.40;34.27;;;3.10;99.90;;;;;;5071803;28;20434;-71
2020/12/13 03:24:42;;;;;;;224.30;25.73;;;3.20;99.90;;;;;;5072350;28;20444;-69
2020/12/13 03:27:09;;;;;;;401.10;38.73;;;3.10;99.90;;;;;;5072307;28;20432;-69
2020/12/13 03:29:35;;;;;;;226.50;23.70;;;3.10;99.90;;;;;;5071845;28;20488;-70
2020/12/13 03:32:03;;;;;;;432.57;37.70;;;3.10;99.90;;;;;;5072233;28;20453;-70
2020/12/13 03:34:29;;;;;;;345.27;33.77;;;3.10;99.90;;;;;;5072842;28;20437;-69
2020/12/13 03:36:56;;;;;;;268.27;26.83;;;3.10;99.90;;;;;;5072366;28;20426;-69
2020/12/13 03:39:23;;;;;;;383.47;35.83;;;3.20;99.90;;;;;;5071675;28;20452;-69
2020/12/13 03:41:49;;;;;;;505.67;45.87;;;3.20;99.90;;;;;;5072238;28;20422;-71
2020/12/13 03:44:16;;;;;;;261.57;28.17;;;3.20;99.90;;;;;;5072009;28;20422;-70
2020/12/13 03:46:43;;;;;;;165.90;19.80;;;3.20;99.90;;;;;;5072232;28;20426;-70
2020/12/13 03:49:10;;;;;;;172.60;23.97;;;3.10;99.90;;;;;;5072070;28;20469;-70
2020/12/13 03:51:37;;;;;;;350.00;30.27;;;3.20;99.90;;;;;;5072070;28;20422;-69
2020/12/13 03:54:03;;;;;;;445.40;40.97;;;3.10;99.90;;;;;;5072006;28;20452;-69
2020/12/13 03:56:30;;;;;;;380.33;36.57;;;3.10;99.90;;;;;;5072411;28;20434;-70
2020/12/13 03:58:57;;;;;;;416.13;45.00;;;3.10;99.90;;;;;;5071960;28;20453;-69
2020/12/13 04:01:23;;;;;;;308.13;31.37;;;3.10;99.90;;;;;;5071955;28;20437;-69
2020/12/13 04:03:50;;;;;;;422.90;42.10;;;3.10;99.90;;;;;;5071168;28;20440;-69
2020/12/13 04:06:18;;;;;;;410.60;37.33;;;3.10;99.90;;;;;;5072068;28;20449;-70
2020/12/13 04:08:44;;;;;;;388.40;33.87;;;3.10;99.90;;;;;;5071139;28;20433;-71
2020/12/13 04:11:11;;;;;;;419.40;40.23;;;3.10;99.90;;;;;;5071677;28;20422;-70
2020/12/13 04:13:38;;;;;;;472.83;41.30;;;3.10;99.90;;;;;;5071769;28;20820;-69
2020/12/13 04:16:05;;;;;;;510.23;44.10;;;3.10;99.90;;;;;;5084405;28;20561;-70
2020/12/13 04:18:31;;;;;;;472.17;44.10;;;3.10;99.90;;;;;;5072500;28;20748;-69
2020/12/13 04:20:58;;;;;;;421.03;42.23;;;3.00;99.90;;;;;;5071508;28;20926;-69
2020/12/13 04:23:26;;;;;;;323.90;35.77;;;3.00;99.90;;;;;;5070658;28;20457;-70
2020/12/13 04:25:52;;;;;;;598.27;54.67;;;3.00;99.90;;;;;;5071579;28;20437;-69
2020/12/13 04:28:19;;;;;;;412.73;44.00;;;3.00;99.90;;;;;;5070812;28;20452;-70
2020/12/13 04:30:45;;;;;;;514.73;46.10;;;3.00;99.90;;;;;;5071194;28;20473;-70
2020/12/13 04:33:12;;;;;;;515.97;48.17;;;3.00;99.90;;;;;;5071174;28;20426;-70
2020/12/13 04:35:39;;;;;;;596.57;56.17;;;3.00;99.90;;;;;;5071402;28;20460;-70
2020/12/13 04:38:06;;;;;;;530.27;51.73;;;3.00;99.90;;;;;;5070008;28;20463;-70
2020/12/13 04:40:36;;;;;;;469.07;37.73;;;3.00;99.90;;;;;;5071014;28;20963;-69
2020/12/13 04:43:03;;;;;;;301.90;28.57;;;2.90;99.90;;;;;;5071066;28;20923;-69
2020/12/13 04:45:30;;;;;;;524.90;48.83;;;3.00;99.90;;;;;;5071477;28;20826;-71
2020/12/13 04:48:05;;;;;;;600.10;52.07;;;2.90;99.90;;;;;;5070716;28;20452;-69
2020/12/13 04:50:37;;;;;;;494.27;47.20;;;2.90;99.90;;;;;;5070876;28;20515;-70
2020/12/13 04:53:05;;;;;;;479.67;49.83;;;2.90;99.90;;;;;;5070766;28;20430;-69
2020/12/13 04:55:39;;;;;;;429.30;42.97;;;2.90;99.90;;;;;;5070904;28;20457;-71
2020/12/13 04:58:10;;;;;;;426.40;39.87;;;2.90;99.90;;;;;;5071023;28;20426;-69
2020/12/13 05:00:38;;;;;;;548.40;56.07;;;2.90;99.90;;;;;;5070812;28;20442;-69
2020/12/13 05:03:06;;;;;;;489.93;45.80;;;2.90;99.90;;;;;;5071004;28;20944;-68
2020/12/13 05:05:32;;;;;;;286.73;32.40;;;2.90;99.90;;;;;;5070886;28;20433;-70
2020/12/13 05:07:59;;;;;;;471.87;42.30;;;2.90;99.90;;;;;;5070099;28;20418;-70
2020/12/13 05:10:26;;;;;;;490.43;43.87;;;2.90;99.90;;;;;;5070693;28;20705;-71
2020/12/13 05:12:53;;;;;;;617.97;49.73;;;2.90;99.90;;;;;;5070619;28;20932;-69
2020/12/13 05:15:20;;;;;;;565.00;45.80;;;2.80;99.90;;;;;;5077378;28;20441;-72
2020/12/13 05:17:47;;;;;;;466.20;41.27;;;2.80;99.90;;;;;;5078586;28;20429;-69
2020/12/13 05:20:14;;;;;;;416.93;35.50;;;2.90;99.90;;;;;;5070778;28;20442;-69
2020/12/13 05:22:40;;;;;;;459.70;37.67;;;2.90;99.90;;;;;;5069996;28;20434;-71
2020/12/13 05:25:13;;;;;;;407.90;29.00;;;2.90;99.90;;;;;;5070683;28;20434;-69
2020/12/13 05:27:41;;;;;;;543.73;45.33;;;2.90;99.90;;;;;;5070685;28;20819;-70
2020/12/13 05:30:10;;;;;;;464.87;41.20;;;2.90;99.90;;;;;;5070566;28;20474;-69
2020/12/13 05:32:36;;;;;;;316.20;27.17;;;2.90;99.90;;;;;;5070458;28;20563;-70
2020/12/13 05:35:05;;;;;;;331.17;31.13;;;2.90;99.90;;;;;;5070662;28;20779;-69
2020/12/13 05:37:32;;;;;;;330.67;29.73;;;2.80;99.90;;;;;;5070433;28;20437;-69
2020/12/13 05:40:00;;;;;;;538.37;43.47;;;2.80;99.90;;;;;;5070568;28;20457;-69
2020/12/13 05:42:31;;;;;;;473.83;40.43;;;2.90;99.90;;;;;;5070207;28;20445;-70
2020/12/13 05:45:14;;;;;;;363.57;30.27;;;2.80;99.90;;;;;;5070649;28;20499;-69
2020/12/13 05:50:34;;;;;;;584.60;45.03;;;2.80;99.90;;;;;;5062794;28;20554;-69
2020/12/13 05:53:02;;;;;;;398.27;34.00;;;2.80;99.90;;;;;;5074410;28;20445;-70
2020/12/13 05:55:30;;;;;;;467.73;42.87;;;2.80;99.90;;;;;;5074639;28;20526;-69
2020/12/13 05:57:57;;;;;;;400.90;37.17;;;2.80;99.90;;;;;;5074397;28;20426;-69
2020/12/13 06:00:23;;;;;;;563.57;38.97;;;2.80;99.90;;;;;;5074398;28;20450;-69
2020/12/13 06:02:52;;;;;;;521.27;41.13;;;2.80;99.90;;;;;;5074238;28;20422;-70
2020/12/13 06:05:22;;;;;;;491.63;41.30;;;2.70;99.90;;;;;;5074348;28;20432;-69
2020/12/13 06:07:50;;;;;;;459.13;36.03;;;2.80;99.90;;;;;;5074130;28;20422;-70
2020/12/13 06:10:24;;;;;;;444.13;32.67;;;2.70;99.90;;;;;;5074222;28;21175;-71
2020/12/13 06:12:59;;;;;;;484.60;30.80;;;2.70;99.90;;;;;;5075356;28;20519;-71
2020/12/13 06:15:28;;;;;;;547.40;43.20;;;2.70;99.90;;;;;;5074462;28;20528;-72
2020/12/13 06:17:55;;;;;;;518.60;42.10;;;2.70;99.90;;;;;;5074608;28;20485;-71
2020/12/13 06:20:23;;;;;;;455.50;35.90;;;2.70;99.90;;;;;;5075107;28;20452;-72
2020/12/13 06:22:51;;;;;;;292.93;20.63;;;2.70;99.90;;;;;;5073854;28;20428;-71
2020/12/13 06:25:24;;;;;;;447.03;34.80;;;2.80;99.90;;;;;;5074777;28;20442;-71
2020/12/13 06:27:52;;;;;;;351.33;23.67;;;2.70;99.90;;;;;;5074556;28;20437;-72
2020/12/13 06:30:20;;;;;;;565.93;39.50;;;2.70;99.90;;;;;;5074271;28;20817;-71
2020/12/13 06:32:51;;;;;;;278.83;23.57;;;2.70;99.90;;;;;;5074240;28;20822;-71
2020/12/13 06:35:19;;;;;;;397.33;27.50;;;2.70;99.90;;;;;;5074628;28;20501;-71
2020/12/13 06:37:48;;;;;;;437.60;33.60;;;2.70;99.90;;;;;;5074497;28;20430;-71
2020/12/13 06:40:19;;;;;;;403.97;28.03;;;2.70;99.90;;;;;;5074071;28;20449;-72
2020/12/13 06:42:47;;;;;;;363.97;24.03;;;2.60;99.90;;;;;;5074727;28;20473;-72
2020/12/13 06:45:15;;;;;;;400.17;27.00;;;2.70;99.90;;;;;;5074645;28;20461;-72
2020/12/13 06:47:44;;;;;;;347.43;25.37;;;2.60;99.90;;;;;;5074601;28;20457;-72
2020/12/13 06:50:19;;;;;;;466.57;31.63;;;2.60;99.90;;;;;;5074071;28;20474;-72
2020/12/13 06:52:50;;;;;;;599.93;40.63;;;2.60;99.90;;;;;;5074066;28;20425;-72
2020/12/13 06:55:17;;;;;;;268.27;20.87;;;2.60;99.90;;;;;;5077898;28;20438;-70
2020/12/13 06:57:46;;;;;;;371.90;24.40;;;2.70;99.90;;;;;;5093560;28;20421;-70
2020/12/13 07:00:12;;;;;;;282.00;19.30;;;2.80;99.90;;;;;;5093218;28;20977;-70
2020/12/13 07:02:58;;;;;;;314.37;25.83;;;2.90;99.90;;;;;;5092832;28;20429;-70
2020/12/13 07:05:53;;;;;;;350.67;23.80;;;2.90;99.90;;;;;;5094020;28;20922;-69
2020/12/13 07:08:23;;;;;;;239.80;19.27;;;2.80;99.90;;;;;;5090085;28;20433;-68
2020/12/13 07:10:52;;;;;;;223.13;17.37;;;2.90;99.90;;;;;;5072845;28;20477;-68
2020/12/13 07:13:21;;;;;;;284.77;21.47;;;2.80;99.90;;;;;;5073315;28;20953;-68
2020/12/13 07:15:50;;;;;;;217.07;17.70;;;2.90;99.90;;;;;;5073209;28;20517;-68
2020/12/13 07:18:18;;;;;;;237.13;17.00;;;2.90;99.90;;;;;;5072578;28;20437;-69
2020/12/13 07:20:45;;;;;;;332.40;19.80;;;2.80;99.90;;;;;;5081305;28;20983;-69
2020/12/13 07:23:12;;;;;;;247.60;17.10;;;2.80;99.90;;;;;;5072569;28;20483;-68
2020/12/13 07:25:41;;;;;;;316.73;24.13;;;2.80;99.90;;;;;;5090182;28;20532;-68
2020/12/13 07:28:08;;;;;;;283.77;22.23;;;2.90;99.90;;;;;;5092997;28;20437;-68
2020/12/13 07:30:37;;;;;;;323.40;24.77;;;2.90;99.90;;;;;;5092672;28;20472;-67
2020/12/13 07:33:04;;;;;;;230.10;18.93;;;2.80;99.90;;;;;;5084869;28;20437;-68
2020/12/13 07:35:31;;;;;;;280.73;20.97;;;2.90;99.90;;;;;;5073543;28;20430;-68
2020/12/13 07:37:58;;;;;;;246.50;20.27;;;2.90;99.90;;;;;;5072495;28;20426;-68
2020/12/13 07:40:25;;;;;;;377.57;28.20;;;2.90;99.90;;;;;;5073983;28;20818;-68
2020/12/13 07:42:57;;;;;;;300.40;20.77;;;2.90;99.90;;;;;;5092572;28;20921;-68
2020/12/13 07:45:24;;;;;;;94.23;11.20;;;3.00;99.90;;;;;;5093166;28;20823;-67
2020/12/13 07:48:00;;;;;;;338.30;30.70;;;3.00;99.90;;;;;;5092609;28;20417;-68
2020/12/13 07:50:29;;;;;;;299.83;24.20;;;3.10;99.90;;;;;;5092394;28;20518;-69
2020/12/13 07:52:55;;;;;;;342.67;26.10;;;3.10;99.90;;;;;;5092072;28;20433;-69
2020/12/13 07:55:22;;;;;;;282.77;19.60;;;3.10;99.90;;;;;;5092477;28;20186;-69
2020/12/13 07:57:49;;;;;;;209.27;16.03;;;3.10;99.90;;;;;;5092479;28;20421;-69
2020/12/13 08:00:17;;;;;;;331.30;21.90;;;3.10;99.90;;;;;;5092354;28;20445;-69
2020/12/13 08:02:43;;;;;;;296.60;19.73;;;3.20;99.90;;;;;;5092072;28;20426;-69
2020/12/13 08:05:12;;;;;;;378.67;21.73;;;3.20;99.90;;;;;;5092343;28;20429;-68
2020/12/13 08:07:39;;;;;;;398.57;25.10;;;3.20;99.90;;;;;;5092311;28;20432;-69
2020/12/13 08:10:06;;;;;;;344.23;23.13;;;3.20;99.90;;;;;;5075038;28;20998;-69
2020/12/13 08:12:38;;;;;;;360.20;23.50;;;3.10;99.90;;;;;;5070677;28;20441;-69
2020/12/13 08:15:05;;;;;;;324.90;25.03;;;3.20;99.90;;;;;;5072140;28;20441;-69
2020/12/13 08:17:33;;;;;;;356.43;21.50;;;3.20;99.90;;;;;;5071421;28;20436;-70
2020/12/13 08:20:03;;;;;;;283.93;18.70;;;3.20;99.90;;;;;;5071752;28;20453;-68
2020/12/13 08:22:34;;;;;;;322.37;21.73;;;3.20;99.90;;;;;;5070961;28;20422;-69
2020/12/13 08:25:02;;;;;;;239.10;15.97;;;3.20;99.90;;;;;;5071240;28;20446;-67
2020/12/13 08:27:30;;;;;;;236.27;13.87;;;3.20;99.90;;;;;;5071906;28;20906;-67
2020/12/13 08:29:58;;;;;;;167.60;11.70;;;3.20;99.90;;;;;;5070600;28;20484;-67
2020/12/13 08:32:29;;;;;;;142.30;10.37;;;3.10;99.90;;;;;;5071357;28;20418;-66
2020/12/13 08:35:08;;;;;;;159.27;11.00;;;3.20;99.90;;;;;;5075600;28;20441;-66
2020/12/13 08:37:35;;;;;;;164.60;15.33;;;3.20;99.90;;;;;;5081134;28;20426;-67
2020/12/13 08:40:03;;;;;;;184.23;12.47;;;3.30;99.90;;;;;;5071062;28;20446;-69
2020/12/13 08:42:29;;;;;;;162.63;13.93;;;3.30;99.90;;;;;;5071733;28;20438;-69
2020/12/13 08:44:56;;;;;;;135.27;10.20;;;3.30;99.90;;;;;;5071141;28;20441;-68
2020/12/13 08:47:31;;;;;;;90.50;10.37;;;3.40;99.90;;;;;;5071472;28;20503;-68
2020/12/13 08:50:00;;;;;;;188.57;14.23;;;3.40;99.90;;;;;;5073904;28;20924;-68
2020/12/13 08:52:33;;;;;;;223.60;16.20;;;3.40;99.90;;;;;;5077028;28;20478;-71
2020/12/13 08:55:04;;;;;;;137.13;12.73;;;3.40;99.90;;;;;;5079930;28;20429;-69
2020/12/13 08:57:32;;;;;;;173.87;13.20;;;3.40;99.90;;;;;;5080512;28;20444;-68
2020/12/13 09:00:01;;;;;;;110.73;8.83;;;3.40;99.90;;;;;;5089529;28;20445;-68
2020/12/13 09:02:28;;;;;;;62.43;7.33;;;3.40;99.90;;;;;;5090909;28;20437;-68
2020/12/13 09:04:55;;;;;;;58.73;6.90;;;3.50;99.90;;;;;;5091523;28;20421;-69
2020/12/13 09:07:23;;;;;;;29.20;4.27;;;3.60;99.90;;;;;;5083375;28;20430;-68
2020/12/13 09:09:50;;;;;;;30.07;4.47;;;3.60;99.90;;;;;;5073831;28;20487;-68
2020/12/13 09:12:19;;;;;;;89.80;7.73;;;3.70;99.90;;;;;;5091037;28;20425;-68
2020/12/13 09:14:46;;;;;;;61.83;6.50;;;3.70;99.90;;;;;;5091228;28;20437;-68
2020/12/13 09:17:23;;;;;;;117.00;9.90;;;3.60;99.90;;;;;;5091166;28;20457;-68
2020/12/13 09:19:51;;;;;;;95.83;9.30;;;3.60;99.90;;;;;;5091089;28;20474;-68
2020/12/13 09:22:23;;;;;;;75.63;8.67;;;3.60;99.90;;;;;;5090826;28;20457;-68
2020/12/13 09:24:50;;;;;;;90.97;9.40;;;3.60;99.90;;;;;;5072609;28;20437;-68
2020/12/13 09:27:19;;;;;;;100.57;7.33;;;3.60;99.90;;;;;;5070750;28;20425;-68
2020/12/13 09:29:46;;;;;;;149.63;10.87;;;3.70;99.90;;;;;;5070225;28;20556;-68
2020/12/13 09:32:14;;;;;;;103.00;8.03;;;3.70;99.90;;;;;;5070688;28;20422;-68
2020/12/13 09:34:41;;;;;;;56.10;4.67;;;3.70;99.90;;;;;;5072994;28;20449;-68
2020/12/13 09:37:12;;;;;;;29.63;3.60;;;3.70;99.90;;;;;;5080296;28;20564;-68
2020/12/13 09:39:41;;;;;;;28.37;3.30;;;3.80;99.90;;;;;;5070218;28;20460;-68
2020/12/13 09:42:08;;;;;;;9.67;2.70;;;3.80;99.90;;;;;;5070557;28;20426;-69
2020/12/13 09:44:35;;;;;;;51.00;5.43;;;3.80;99.90;;;;;;5070738;28;20794;-67
2020/12/13 09:47:14;;;;;;;113.90;8.90;;;3.90;99.90;;;;;;5070021;28;20427;-68
2020/12/13 09:49:41;;;;;;;226.77;15.90;;;3.90;99.90;;;;;;5065838;28;20480;-68
2020/12/13 09:52:08;;;;;;;54.40;5.73;;;3.90;99.90;;;;;;5070414;28;20437;-68
2020/12/13 09:54:35;;;;;;;34.37;4.03;;;3.90;99.90;;;;;;5070252;28;20776;-65
2020/12/13 09:57:02;;;;;;;79.47;6.33;;;4.00;99.90;;;;;;5070399;28;20433;-65
2020/12/13 09:59:29;;;;;;;23.43;4.23;;;4.00;99.90;;;;;;5070417;28;20458;-65
2020/12/13 10:01:56;;;;;;;159.00;11.60;;;4.00;99.90;;;;;;5070320;28;20820;-65
2020/12/13 10:04:23;;;;;;;143.73;13.67;;;4.00;99.90;;;;;;5070445;28;20433;-67
2020/12/13 10:09:34;;;;;;;138.20;12.77;;;4.00;99.90;;;;;;5079624;28;20472;-66
2020/12/13 10:12:02;;;;;;;74.10;7.60;;;4.00;99.90;;;;;;5090087;28;20436;-68
2020/12/13 10:14:28;;;;;;;79.40;8.40;;;3.90;99.90;;;;;;5090642;28;20512;-66
2020/12/13 10:16:56;;;;;;;143.73;10.50;;;3.90;99.90;;;;;;5090187;28;20431;-66
2020/12/13 10:19:23;;;;;;;168.03;14.40;;;3.90;99.90;;;;;;5090506;28;20498;-66
2020/12/13 10:21:49;;;;;;;199.60;15.53;;;3.80;99.90;;;;;;5090250;28;20525;-66
2020/12/13 10:24:16;;;;;;;73.17;10.67;;;3.80;99.90;;;;;;5089966;28;21013;-66
2020/12/13 10:26:43;;;;;;;196.43;22.93;;;3.70;99.90;;;;;;5090150;28;20429;-66
2020/12/13 10:29:10;;;;;;;62.03;8.87;;;3.60;99.90;;;;;;5090279;28;20542;-65
2020/12/13 10:31:38;;;;;;;106.40;10.80;;;3.60;99.90;;;;;;5090100;28;20472;-66
2020/12/13 10:34:07;;;;;;;21.97;5.10;;;3.50;99.90;;;;;;5090422;28;20448;-67
2020/12/13 10:36:35;;;;;;;21.27;4.70;;;3.50;99.90;;;;;;5091930;28;20433;-68
2020/12/13 10:39:04;;;;;;;72.30;8.70;;;3.50;99.90;;;;;;5083575;28;20461;-69
2020/12/13 10:41:32;;;;;;;33.90;4.93;;;3.60;99.90;;;;;;5083742;28;20918;-68
2020/12/13 10:43:59;;;;;;;3.27;2.97;;;3.60;99.90;;;;;;5083868;28;20428;-68
2020/12/13 10:46:26;;;;;;;11.93;3.60;;;3.70;99.90;;;;;;5086545;28;20425;-70
2020/12/13 10:48:53;;;;;;;2.70;2.50;;;3.60;99.90;;;;;;5073003;28;20449;-68
2020/12/13 10:51:20;;;;;;;3.40;3.10;;;3.60;99.90;;;;;;5073123;28;20465;-68
2020/12/13 10:53:47;;;;;;;2.37;2.17;;;3.60;99.90;;;;;;5073361;28;20448;-69
2020/12/13 10:56:14;;;;;;;2.53;2.33;;;3.70;99.90;;;;;;5073200;28;20434;-68
2020/12/13 10:58:41;;;;;;;2.87;1.40;;;3.70;99.90;;;;;;5072714;28;20469;-70
2020/12/13 11:01:09;;;;;;;2.50;2.40;;;3.80;99.90;;;;;;5073272;28;20432;-68
2020/12/13 11:03:36;;;;;;;4.30;3.47;;;3.90;99.90;;;;;;5073142;28;20438;-68
2020/12/13 11:06:03;;;;;;;4.03;3.27;;;3.90;99.90;;;;;;5073265;28;20453;-68
2020/12/13 11:08:30;;;;;;;2.80;2.60;;;4.00;99.90;;;;;;5072471;28;20450;-68
2020/12/13 11:10:57;;;;;;;2.07;1.87;;;4.00;99.90;;;;;;5071712;28;20476;-68
2020/12/13 11:13:23;;;;;;;1.73;1.60;;;4.00;99.90;;;;;;5071652;28;20434;-68
2020/12/13 11:16:04;;;;;;;1.40;1.30;;;4.00;99.90;;;;;;5079901;28;20445;-68
2020/12/13 11:18:33;;;;;;;1.50;1.40;;;4.00;99.90;;;;;;5081655;28;20796;-69
2020/12/13 11:21:00;;;;;;;2.00;1.77;;;4.00;99.90;;;;;;5079466;28;20421;-68
2020/12/13 11:23:27;;;;;;;2.67;2.47;;;3.90;99.90;;;;;;5089431;28;20785;-68
2020/12/13 11:25:54;;;;;;;3.00;2.07;;;3.90;99.90;;;;;;5087935;28;20441;-68
2020/12/13 11:28:24;;;;;;;5.53;2.27;;;3.90;99.90;;;;;;5084326;28;20440;-68
2020/12/13 11:30:50;;;;;;;4.00;2.67;;;4.00;99.90;;;;;;5071800;28;20474;-68
2020/12/13 11:33:17;;;;;;;30.60;2.83;;;4.00;99.90;;;;;;5072197;28;20422;-70
2020/12/13 11:35:44;;;;;;;62.33;7.13;;;4.00;99.90;;;;;;5075331;28;20429;-69
2020/12/13 11:38:11;;;;;;;38.37;4.73;;;3.90;99.90;;;;;;5081667;28;20778;-69
2020/12/13 11:40:38;;;;;;;18.93;3.87;;;4.00;99.90;;;;;;5080499;28;20456;-70
2020/12/13 11:43:05;;;;;;;169.03;12.63;;;4.00;99.90;;;;;;5083164;28;20432;-69
2020/12/13 11:45:32;;;;;;;147.97;9.67;;;4.00;99.90;;;;;;5082228;28;20445;-70
2020/12/13 11:47:58;;;;;;;18.67;3.80;;;3.90;99.90;;;;;;5080316;28;20444;-69
2020/12/13 11:50:25;;;;;;;55.13;6.23;;;3.70;99.90;;;;;;5082442;28;20477;-69
2020/12/13 11:52:52;;;;;;;6.00;3.00;;;3.70;99.90;;;;;;5081843;28;20428;-69
2020/12/13 11:55:19;;;;;;;2.30;2.20;;;3.70;99.90;;;;;;5080672;28;20434;-69
2020/12/13 11:57:47;;;;;;;2.27;2.07;;;3.60;99.90;;;;;;5082476;28;20433;-70
2020/12/13 12:00:13;;;;;;;5.10;3.10;;;3.60;99.90;;;;;;5080188;28;20449;-69
2020/12/13 12:02:41;;;;;;;2.17;1.70;;;3.70;99.90;;;;;;5082383;28;20448;-69
2020/12/13 12:05:10;;;;;;;5.70;3.27;;;3.70;99.90;;;;;;5080956;28;20433;-69
2020/12/13 12:07:37;;;;;;;7.17;3.73;;;3.70;99.90;;;;;;5080802;28;20987;-69
2020/12/13 12:10:04;;;;;;;4.97;4.57;;;3.70;99.90;;;;;;5079857;28;20992;-69
2020/12/13 12:12:31;;;;;;;2.30;2.10;;;3.70;99.90;;;;;;5081478;28;20778;-68
2020/12/13 12:14:58;;;;;;;4.30;2.23;;;3.70;99.90;;;;;;5079017;28;20426;-68
2020/12/13 12:17:25;;;;;;;4.53;1.87;;;3.70;99.90;;;;;;5071829;28;20426;-69
2020/12/13 12:19:52;;;;;;;3.03;2.10;;;3.70;99.90;;;;;;5071481;28;20446;-71
2020/12/13 12:22:19;;;;;;;5.60;5.10;;;3.70;99.90;;;;;;5071474;28;20517;-70
2020/12/13 12:24:45;;;;;;;2.93;2.50;;;3.80;99.90;;;;;;5086471;28;20445;-69
2020/12/13 12:27:12;;;;;;;4.93;2.50;;;3.80;99.90;;;;;;5092014;28;20443;-69
2020/12/13 12:29:41;;;;;;;2.63;2.10;;;3.80;99.90;;;;;;5090969;28;20461;-70
2020/12/13 12:32:07;;;;;;;4.53;2.23;;;3.90;99.90;;;;;;5089690;28;20524;-70
2020/12/13 12:34:34;;;;;;;2.60;2.40;;;3.90;99.90;;;;;;5089949;28;20425;-69
2020/12/13 12:37:01;;;;;;;3.93;2.57;;;3.90;99.90;;;;;;5087735;28;20418;-68
2020/12/13 12:39:27;;;;;;;2.77;2.57;;;3.90;99.90;;;;;;5084923;28;20461;-68
2020/12/13 12:41:54;;;;;;;7.70;1.90;;;3.90;99.90;;;;;;5080707;28;20440;-68